sensor_id;sensor_type;location;lat;lon;timestamp;P1;durP1;ratioP1;P2;durP2;ratioP2
13309;SDS011;6723;48.256;16.402;2024-02-21T00:00:57;5.53;;;2.47;;
13309;SDS011;6723;48.256;16.402;2024-02-21T00:03:22;6.03;;;2.47;;
13309;SDS011;6723;48.256;16.402;2024-02-21T00:05:48;4.93;;;2.50;;
13309;SDS011;6723;48.256;16.402;2024-02-21T00:08:14;6.13;;;2.27;;
13309;SDS011;6723;48.256;16.402;2024-02-21T00:10:40;5.37;;;2.30;;
13309;SDS011;6723;48.256;16.402;2024-02-21T00:13:05;6.27;;;2.33;;
13309;SDS011;6723;48.256;16.402;2024-02-21T00:15:31;4.07;;;2.63;;
13309;SDS011;6723;48.256;16.402;2024-02-21T00:17:57;6.63;;;2.43;;
13309;SDS011;6723;48.256;16.402;2024-02-21T00:20:23;7.17;;;2.60;;
13309;SDS011;6723;48.256;16.402;2024-02-21T00:22:51;4.87;;;2.00;;
13309;SDS011;6723;48.256;16.402;2024-02-21T00:25:17;3.77;;;2.00;;
13309;SDS011;6723;48.256;16.402;2024-02-21T00:27:43;4.77;;;2.20;;
13309;SDS011;6723;48.256;16.402;2024-02-21T00:30:09;6.27;;;2.43;;
13309;SDS011;6723;48.256;16.402;2024-02-21T00:32:35;4.80;;;2.30;;
13309;SDS011;6723;48.256;16.402;2024-02-21T00:35:01;6.23;;;2.50;;
13309;SDS011;6723;48.256;16.402;2024-02-21T00:37:27;7.83;;;2.50;;
13309;SDS011;6723;48.256;16.402;2024-02-21T00:39:56;5.73;;;2.63;;
13309;SDS011;6723;48.256;16.402;2024-02-21T00:42:22;5.47;;;2.30;;
13309;SDS011;6723;48.256;16.402;2024-02-21T00:44:48;6.17;;;2.50;;
13309;SDS011;6723;48.256;16.402;2024-02-21T00:47:13;5.97;;;2.63;;
13309;SDS011;6723;48.256;16.402;2024-02-21T00:49:39;8.50;;;2.60;;
13309;SDS011;6723;48.256;16.402;2024-02-21T00:52:05;3.93;;;2.43;;
13309;SDS011;6723;48.256;16.402;2024-02-21T00:54:31;5.17;;;2.40;;
13309;SDS011;6723;48.256;16.402;2024-02-21T00:56:57;6.70;;;2.40;;
13309;SDS011;6723;48.256;16.402;2024-02-21T00:59:23;9.57;;;2.50;;
13309;SDS011;6723;48.256;16.402;2024-02-21T01:01:48;5.37;;;2.40;;
13309;SDS011;6723;48.256;16.402;2024-02-21T01:04:14;6.13;;;2.43;;
13309;SDS011;6723;48.256;16.402;2024-02-21T01:06:40;7.83;;;2.77;;
13309;SDS011;6723;48.256;16.402;2024-02-21T01:09:08;7.63;;;2.63;;
13309;SDS011;6723;48.256;16.402;2024-02-21T01:11:33;4.23;;;2.37;;
13309;SDS011;6723;48.256;16.402;2024-02-21T01:13:59;7.20;;;2.40;;
13309;SDS011;6723;48.256;16.402;2024-02-21T01:16:25;5.50;;;2.07;;
13309;SDS011;6723;48.256;16.402;2024-02-21T01:18:51;4.17;;;2.00;;
13309;SDS011;6723;48.256;16.402;2024-02-21T01:21:17;6.07;;;2.23;;
13309;SDS011;6723;48.256;16.402;2024-02-21T01:23:43;6.90;;;2.50;;
13309;SDS011;6723;48.256;16.402;2024-02-21T01:26:08;6.60;;;2.50;;
13309;SDS011;6723;48.256;16.402;2024-02-21T01:28:38;6.10;;;2.13;;
13309;SDS011;6723;48.256;16.402;2024-02-21T01:31:04;6.20;;;2.47;;
13309;SDS011;6723;48.256;16.402;2024-02-21T01:33:29;7.17;;;2.10;;
13309;SDS011;6723;48.256;16.402;2024-02-21T01:36:03;5.80;;;2.33;;
13309;SDS011;6723;48.256;16.402;2024-02-21T01:38:33;6.57;;;2.03;;
13309;SDS011;6723;48.256;16.402;2024-02-21T01:41:00;6.10;;;2.10;;
13309;SDS011;6723;48.256;16.402;2024-02-21T01:43:25;7.43;;;2.60;;
13309;SDS011;6723;48.256;16.402;2024-02-21T01:45:55;6.03;;;2.47;;
13309;SDS011;6723;48.256;16.402;2024-02-21T01:48:22;5.73;;;2.03;;
13309;SDS011;6723;48.256;16.402;2024-02-21T01:50:49;8.33;;;2.70;;
13309;SDS011;6723;48.256;16.402;2024-02-21T01:53:16;3.90;;;2.00;;
13309;SDS011;6723;48.256;16.402;2024-02-21T01:55:48;6.83;;;2.33;;
13309;SDS011;6723;48.256;16.402;2024-02-21T01:58:17;5.33;;;2.10;;
13309;SDS011;6723;48.256;16.402;2024-02-21T02:00:45;6.33;;;2.30;;
13309;SDS011;6723;48.256;16.402;2024-02-21T02:03:13;6.20;;;2.20;;
13309;SDS011;6723;48.256;16.402;2024-02-21T02:05:45;4.47;;;2.13;;
13309;SDS011;6723;48.256;16.402;2024-02-21T02:08:15;4.33;;;2.40;;
13309;SDS011;6723;48.256;16.402;2024-02-21T02:10:47;7.17;;;2.30;;
13309;SDS011;6723;48.256;16.402;2024-02-21T02:13:13;4.37;;;2.27;;
13309;SDS011;6723;48.256;16.402;2024-02-21T02:15:45;5.80;;;2.07;;
13309;SDS011;6723;48.256;16.402;2024-02-21T02:18:13;7.17;;;2.47;;
13309;SDS011;6723;48.256;16.402;2024-02-21T02:20:39;7.53;;;2.30;;
13309;SDS011;6723;48.256;16.402;2024-02-21T02:25:53;6.93;;;2.30;;
13309;SDS011;6723;48.256;16.402;2024-02-21T02:28:19;6.70;;;2.40;;
13309;SDS011;6723;48.256;16.402;2024-02-21T02:30:45;6.40;;;2.40;;
13309;SDS011;6723;48.256;16.402;2024-02-21T02:33:12;6.43;;;2.40;;
13309;SDS011;6723;48.256;16.402;2024-02-21T02:35:38;6.30;;;2.40;;
13309;SDS011;6723;48.256;16.402;2024-02-21T02:38:04;4.63;;;2.00;;
13309;SDS011;6723;48.256;16.402;2024-02-21T02:40:31;6.40;;;2.13;;
13309;SDS011;6723;48.256;16.402;2024-02-21T02:42:58;5.23;;;2.40;;
13309;SDS011;6723;48.256;16.402;2024-02-21T02:45:24;3.13;;;2.00;;
13309;SDS011;6723;48.256;16.402;2024-02-21T02:47:51;8.53;;;2.43;;
13309;SDS011;6723;48.256;16.402;2024-02-21T02:50:19;8.80;;;2.90;;
13309;SDS011;6723;48.256;16.402;2024-02-21T02:52:45;7.80;;;2.40;;
13309;SDS011;6723;48.256;16.402;2024-02-21T02:55:11;6.47;;;2.00;;
13309;SDS011;6723;48.256;16.402;2024-02-21T02:57:37;6.53;;;2.30;;
13309;SDS011;6723;48.256;16.402;2024-02-21T03:00:03;6.30;;;2.20;;
13309;SDS011;6723;48.256;16.402;2024-02-21T03:02:31;8.60;;;2.20;;
13309;SDS011;6723;48.256;16.402;2024-02-21T03:04:57;5.90;;;2.00;;
13309;SDS011;6723;48.256;16.402;2024-02-21T03:07:24;5.27;;;2.33;;
13309;SDS011;6723;48.256;16.402;2024-02-21T03:09:50;4.70;;;2.20;;
13309;SDS011;6723;48.256;16.402;2024-02-21T03:12:17;5.40;;;2.23;;
13309;SDS011;6723;48.256;16.402;2024-02-21T03:14:52;6.40;;;2.13;;
13309;SDS011;6723;48.256;16.402;2024-02-21T03:17:18;4.97;;;2.40;;
13309;SDS011;6723;48.256;16.402;2024-02-21T03:19:44;7.60;;;2.00;;
13309;SDS011;6723;48.256;16.402;2024-02-21T03:22:10;5.80;;;2.37;;
13309;SDS011;6723;48.256;16.402;2024-02-21T03:24:36;5.57;;;2.07;;
13309;SDS011;6723;48.256;16.402;2024-02-21T03:27:02;4.43;;;2.07;;
13309;SDS011;6723;48.256;16.402;2024-02-21T03:29:27;3.23;;;1.93;;
13309;SDS011;6723;48.256;16.402;2024-02-21T03:31:53;6.20;;;2.07;;
13309;SDS011;6723;48.256;16.402;2024-02-21T03:34:20;4.97;;;1.93;;
13309;SDS011;6723;48.256;16.402;2024-02-21T03:36:46;5.73;;;1.97;;
13309;SDS011;6723;48.256;16.402;2024-02-21T03:39:12;6.93;;;2.57;;
13309;SDS011;6723;48.256;16.402;2024-02-21T03:41:37;8.53;;;2.20;;
13309;SDS011;6723;48.256;16.402;2024-02-21T03:44:03;5.10;;;2.17;;
13309;SDS011;6723;48.256;16.402;2024-02-21T03:46:30;6.50;;;2.60;;
13309;SDS011;6723;48.256;16.402;2024-02-21T03:48:56;6.10;;;2.27;;
13309;SDS011;6723;48.256;16.402;2024-02-21T03:51:22;6.30;;;2.30;;
13309;SDS011;6723;48.256;16.402;2024-02-21T03:53:48;3.40;;;2.13;;
13309;SDS011;6723;48.256;16.402;2024-02-21T03:56:13;5.73;;;2.20;;
13309;SDS011;6723;48.256;16.402;2024-02-21T03:58:39;7.77;;;2.43;;
13309;SDS011;6723;48.256;16.402;2024-02-21T04:01:05;4.47;;;2.10;;
13309;SDS011;6723;48.256;16.402;2024-02-21T04:03:31;8.87;;;2.77;;
13309;SDS011;6723;48.256;16.402;2024-02-21T04:05:57;5.20;;;2.00;;
13309;SDS011;6723;48.256;16.402;2024-02-21T04:08:22;5.20;;;2.30;;
13309;SDS011;6723;48.256;16.402;2024-02-21T04:10:48;6.67;;;2.80;;
13309;SDS011;6723;48.256;16.402;2024-02-21T04:13:14;4.73;;;2.23;;
13309;SDS011;6723;48.256;16.402;2024-02-21T04:15:40;5.53;;;2.53;;
13309;SDS011;6723;48.256;16.402;2024-02-21T04:18:06;7.63;;;2.90;;
13309;SDS011;6723;48.256;16.402;2024-02-21T04:20:32;5.57;;;2.73;;
13309;SDS011;6723;48.256;16.402;2024-02-21T04:22:59;7.97;;;4.03;;
13309;SDS011;6723;48.256;16.402;2024-02-21T04:25:25;6.07;;;2.43;;
13309;SDS011;6723;48.256;16.402;2024-02-21T04:27:51;8.40;;;2.43;;
13309;SDS011;6723;48.256;16.402;2024-02-21T04:30:17;4.97;;;2.30;;
13309;SDS011;6723;48.256;16.402;2024-02-21T04:32:43;6.93;;;2.83;;
13309;SDS011;6723;48.256;16.402;2024-02-21T04:35:09;8.37;;;3.07;;
13309;SDS011;6723;48.256;16.402;2024-02-21T04:37:35;4.23;;;2.20;;
13309;SDS011;6723;48.256;16.402;2024-02-21T04:40:01;6.43;;;2.60;;
13309;SDS011;6723;48.256;16.402;2024-02-21T04:42:27;5.10;;;2.70;;
13309;SDS011;6723;48.256;16.402;2024-02-21T04:44:53;4.83;;;2.40;;
13309;SDS011;6723;48.256;16.402;2024-02-21T04:47:19;5.60;;;2.43;;
13309;SDS011;6723;48.256;16.402;2024-02-21T04:49:45;5.80;;;2.30;;
13309;SDS011;6723;48.256;16.402;2024-02-21T04:52:11;9.37;;;2.93;;
13309;SDS011;6723;48.256;16.402;2024-02-21T04:54:37;7.97;;;2.97;;
13309;SDS011;6723;48.256;16.402;2024-02-21T04:57:03;9.73;;;3.03;;
13309;SDS011;6723;48.256;16.402;2024-02-21T04:59:29;6.93;;;2.57;;
13309;SDS011;6723;48.256;16.402;2024-02-21T05:01:55;5.53;;;2.90;;
13309;SDS011;6723;48.256;16.402;2024-02-21T05:04:21;6.17;;;2.60;;
13309;SDS011;6723;48.256;16.402;2024-02-21T05:06:47;6.83;;;3.00;;
13309;SDS011;6723;48.256;16.402;2024-02-21T05:09:12;8.07;;;3.03;;
13309;SDS011;6723;48.256;16.402;2024-02-21T05:11:39;10.33;;;3.33;;
13309;SDS011;6723;48.256;16.402;2024-02-21T05:14:05;7.73;;;3.20;;
13309;SDS011;6723;48.256;16.402;2024-02-21T05:16:31;8.63;;;2.80;;
13309;SDS011;6723;48.256;16.402;2024-02-21T05:18:56;7.33;;;2.67;;
13309;SDS011;6723;48.256;16.402;2024-02-21T05:21:23;7.10;;;2.80;;
13309;SDS011;6723;48.256;16.402;2024-02-21T05:23:49;5.67;;;2.60;;
13309;SDS011;6723;48.256;16.402;2024-02-21T05:26:25;5.57;;;2.80;;
13309;SDS011;6723;48.256;16.402;2024-02-21T05:28:52;8.57;;;2.70;;
13309;SDS011;6723;48.256;16.402;2024-02-21T05:31:18;6.47;;;2.80;;
13309;SDS011;6723;48.256;16.402;2024-02-21T05:33:45;7.97;;;2.90;;
13309;SDS011;6723;48.256;16.402;2024-02-21T05:36:14;5.70;;;2.90;;
13309;SDS011;6723;48.256;16.402;2024-02-21T05:38:40;6.70;;;2.50;;
13309;SDS011;6723;48.256;16.402;2024-02-21T05:41:05;5.07;;;2.40;;
13309;SDS011;6723;48.256;16.402;2024-02-21T05:43:31;6.87;;;2.60;;
13309;SDS011;6723;48.256;16.402;2024-02-21T05:45:58;5.97;;;2.40;;
13309;SDS011;6723;48.256;16.402;2024-02-21T05:48:24;7.47;;;2.87;;
13309;SDS011;6723;48.256;16.402;2024-02-21T05:50:50;6.27;;;2.80;;
13309;SDS011;6723;48.256;16.402;2024-02-21T05:53:16;5.03;;;2.57;;
13309;SDS011;6723;48.256;16.402;2024-02-21T05:55:42;9.30;;;2.37;;
13309;SDS011;6723;48.256;16.402;2024-02-21T05:58:08;4.40;;;2.23;;
13309;SDS011;6723;48.256;16.402;2024-02-21T06:00:38;7.10;;;3.03;;
13309;SDS011;6723;48.256;16.402;2024-02-21T06:03:04;5.63;;;2.30;;
13309;SDS011;6723;48.256;16.402;2024-02-21T06:05:30;5.50;;;2.37;;
13309;SDS011;6723;48.256;16.402;2024-02-21T06:07:57;6.30;;;2.30;;
13309;SDS011;6723;48.256;16.402;2024-02-21T06:10:22;3.67;;;2.17;;
13309;SDS011;6723;48.256;16.402;2024-02-21T06:12:48;4.70;;;2.10;;
13309;SDS011;6723;48.256;16.402;2024-02-21T06:15:14;5.43;;;2.37;;
13309;SDS011;6723;48.256;16.402;2024-02-21T06:17:40;10.27;;;2.50;;
13309;SDS011;6723;48.256;16.402;2024-02-21T06:20:06;5.57;;;2.10;;
13309;SDS011;6723;48.256;16.402;2024-02-21T06:22:32;7.33;;;2.17;;
13309;SDS011;6723;48.256;16.402;2024-02-21T06:24:58;5.03;;;2.23;;
13309;SDS011;6723;48.256;16.402;2024-02-21T06:27:24;4.77;;;2.00;;
13309;SDS011;6723;48.256;16.402;2024-02-21T06:29:50;3.80;;;2.00;;
13309;SDS011;6723;48.256;16.402;2024-02-21T06:32:16;5.90;;;2.07;;
13309;SDS011;6723;48.256;16.402;2024-02-21T06:34:42;6.90;;;2.40;;
13309;SDS011;6723;48.256;16.402;2024-02-21T06:37:08;7.03;;;2.27;;
13309;SDS011;6723;48.256;16.402;2024-02-21T06:39:34;7.07;;;2.30;;
13309;SDS011;6723;48.256;16.402;2024-02-21T06:42:03;6.93;;;2.30;;
13309;SDS011;6723;48.256;16.402;2024-02-21T06:44:29;5.80;;;2.33;;
13309;SDS011;6723;48.256;16.402;2024-02-21T06:46:55;5.30;;;2.00;;
13309;SDS011;6723;48.256;16.402;2024-02-21T06:49:20;7.83;;;2.20;;
13309;SDS011;6723;48.256;16.402;2024-02-21T06:51:46;7.30;;;2.17;;
13309;SDS011;6723;48.256;16.402;2024-02-21T06:54:12;4.43;;;1.90;;
13309;SDS011;6723;48.256;16.402;2024-02-21T06:56:39;7.30;;;2.33;;
13309;SDS011;6723;48.256;16.402;2024-02-21T06:59:05;5.93;;;2.27;;
13309;SDS011;6723;48.256;16.402;2024-02-21T07:01:31;5.40;;;1.83;;
13309;SDS011;6723;48.256;16.402;2024-02-21T07:03:57;5.17;;;2.03;;
13309;SDS011;6723;48.256;16.402;2024-02-21T07:06:23;9.10;;;2.07;;
13309;SDS011;6723;48.256;16.402;2024-02-21T07:08:49;4.80;;;2.03;;
13309;SDS011;6723;48.256;16.402;2024-02-21T07:11:15;4.60;;;1.97;;
13309;SDS011;6723;48.256;16.402;2024-02-21T07:13:41;4.70;;;2.00;;
13309;SDS011;6723;48.256;16.402;2024-02-21T07:16:07;6.60;;;2.13;;
13309;SDS011;6723;48.256;16.402;2024-02-21T07:18:33;4.83;;;2.10;;
13309;SDS011;6723;48.256;16.402;2024-02-21T07:20:59;5.97;;;1.83;;
13309;SDS011;6723;48.256;16.402;2024-02-21T07:23:25;3.63;;;1.90;;
13309;SDS011;6723;48.256;16.402;2024-02-21T07:25:51;3.83;;;1.93;;
13309;SDS011;6723;48.256;16.402;2024-02-21T07:28:17;4.67;;;2.00;;
13309;SDS011;6723;48.256;16.402;2024-02-21T07:30:43;4.50;;;2.13;;
13309;SDS011;6723;48.256;16.402;2024-02-21T07:33:09;6.23;;;1.93;;
13309;SDS011;6723;48.256;16.402;2024-02-21T07:35:34;7.67;;;1.97;;
13309;SDS011;6723;48.256;16.402;2024-02-21T07:38:03;4.73;;;2.13;;
13309;SDS011;6723;48.256;16.402;2024-02-21T07:40:30;6.60;;;1.97;;
13309;SDS011;6723;48.256;16.402;2024-02-21T07:42:56;4.57;;;1.90;;
13309;SDS011;6723;48.256;16.402;2024-02-21T07:45:22;3.80;;;1.80;;
13309;SDS011;6723;48.256;16.402;2024-02-21T07:47:49;3.30;;;1.53;;
13309;SDS011;6723;48.256;16.402;2024-02-21T07:50:15;3.67;;;1.50;;
13309;SDS011;6723;48.256;16.402;2024-02-21T07:52:41;5.20;;;1.70;;
13309;SDS011;6723;48.256;16.402;2024-02-21T07:55:08;3.77;;;1.70;;
13309;SDS011;6723;48.256;16.402;2024-02-21T07:57:35;6.87;;;1.67;;
13309;SDS011;6723;48.256;16.402;2024-02-21T08:00:01;4.30;;;1.60;;
13309;SDS011;6723;48.256;16.402;2024-02-21T08:02:29;4.53;;;1.80;;
13309;SDS011;6723;48.256;16.402;2024-02-21T08:04:55;5.23;;;1.80;;
13309;SDS011;6723;48.256;16.402;2024-02-21T08:07:21;3.07;;;1.67;;
13309;SDS011;6723;48.256;16.402;2024-02-21T08:09:46;4.23;;;1.63;;
13309;SDS011;6723;48.256;16.402;2024-02-21T08:12:12;4.17;;;1.80;;
13309;SDS011;6723;48.256;16.402;2024-02-21T08:14:38;4.23;;;1.90;;
13309;SDS011;6723;48.256;16.402;2024-02-21T08:17:04;4.50;;;2.00;;
13309;SDS011;6723;48.256;16.402;2024-02-21T08:19:30;3.43;;;1.50;;
13309;SDS011;6723;48.256;16.402;2024-02-21T08:21:56;4.03;;;1.40;;
13309;SDS011;6723;48.256;16.402;2024-02-21T08:24:22;4.57;;;1.40;;
13309;SDS011;6723;48.256;16.402;2024-02-21T08:26:48;4.77;;;1.57;;
13309;SDS011;6723;48.256;16.402;2024-02-21T08:29:14;3.30;;;1.27;;
13309;SDS011;6723;48.256;16.402;2024-02-21T08:31:39;4.23;;;1.23;;
13309;SDS011;6723;48.256;16.402;2024-02-21T08:34:05;3.00;;;1.60;;
13309;SDS011;6723;48.256;16.402;2024-02-21T08:36:32;4.67;;;1.80;;
13309;SDS011;6723;48.256;16.402;2024-02-21T08:38:59;4.17;;;1.60;;
13309;SDS011;6723;48.256;16.402;2024-02-21T08:41:25;4.13;;;1.60;;
13309;SDS011;6723;48.256;16.402;2024-02-21T08:43:52;4.50;;;1.63;;
13309;SDS011;6723;48.256;16.402;2024-02-21T08:46:21;5.30;;;1.67;;
13309;SDS011;6723;48.256;16.402;2024-02-21T08:48:49;5.03;;;1.53;;
13309;SDS011;6723;48.256;16.402;2024-02-21T08:51:16;4.43;;;1.70;;
13309;SDS011;6723;48.256;16.402;2024-02-21T08:53:43;4.60;;;1.87;;
13309;SDS011;6723;48.256;16.402;2024-02-21T08:56:09;3.47;;;1.40;;
13309;SDS011;6723;48.256;16.402;2024-02-21T08:58:35;3.83;;;1.47;;
13309;SDS011;6723;48.256;16.402;2024-02-21T09:01:02;4.00;;;1.60;;
13309;SDS011;6723;48.256;16.402;2024-02-21T09:03:38;4.50;;;1.67;;
13309;SDS011;6723;48.256;16.402;2024-02-21T09:06:07;3.20;;;1.50;;
13309;SDS011;6723;48.256;16.402;2024-02-21T09:08:35;6.30;;;1.80;;
13309;SDS011;6723;48.256;16.402;2024-02-21T09:11:00;4.87;;;1.73;;
13309;SDS011;6723;48.256;16.402;2024-02-21T09:13:27;5.10;;;1.63;;
13309;SDS011;6723;48.256;16.402;2024-02-21T09:15:53;3.67;;;1.40;;
13309;SDS011;6723;48.256;16.402;2024-02-21T09:18:18;3.70;;;1.60;;
13309;SDS011;6723;48.256;16.402;2024-02-21T09:20:44;3.70;;;1.63;;
13309;SDS011;6723;48.256;16.402;2024-02-21T09:23:10;4.23;;;1.60;;
13309;SDS011;6723;48.256;16.402;2024-02-21T09:25:37;6.57;;;1.60;;
13309;SDS011;6723;48.256;16.402;2024-02-21T09:28:03;5.70;;;2.03;;
13309;SDS011;6723;48.256;16.402;2024-02-21T09:30:31;2.90;;;1.40;;
13309;SDS011;6723;48.256;16.402;2024-02-21T09:32:57;5.13;;;1.70;;
13309;SDS011;6723;48.256;16.402;2024-02-21T09:35:27;5.03;;;1.70;;
13309;SDS011;6723;48.256;16.402;2024-02-21T09:37:53;4.87;;;1.80;;
13309;SDS011;6723;48.256;16.402;2024-02-21T09:40:20;5.20;;;1.70;;
13309;SDS011;6723;48.256;16.402;2024-02-21T09:42:46;3.73;;;1.60;;
13309;SDS011;6723;48.256;16.402;2024-02-21T09:45:23;4.80;;;1.40;;
13309;SDS011;6723;48.256;16.402;2024-02-21T09:50:20;4.40;;;1.67;;
13309;SDS011;6723;48.256;16.402;2024-02-21T09:52:48;2.93;;;1.40;;
13309;SDS011;6723;48.256;16.402;2024-02-21T09:55:15;4.40;;;1.80;;
13309;SDS011;6723;48.256;16.402;2024-02-21T09:57:43;5.53;;;1.53;;
13309;SDS011;6723;48.256;16.402;2024-02-21T10:00:09;4.83;;;1.83;;
13309;SDS011;6723;48.256;16.402;2024-02-21T10:02:36;4.63;;;1.57;;
13309;SDS011;6723;48.256;16.402;2024-02-21T10:05:04;5.70;;;1.70;;
13309;SDS011;6723;48.256;16.402;2024-02-21T10:07:33;5.03;;;2.10;;
13309;SDS011;6723;48.256;16.402;2024-02-21T10:10:05;4.30;;;1.80;;
13309;SDS011;6723;48.256;16.402;2024-02-21T10:12:31;6.97;;;1.97;;
13309;SDS011;6723;48.256;16.402;2024-02-21T10:15:03;4.57;;;1.80;;
13309;SDS011;6723;48.256;16.402;2024-02-21T10:17:31;3.17;;;1.67;;
13309;SDS011;6723;48.256;16.402;2024-02-21T10:20:09;4.80;;;1.93;;
13309;SDS011;6723;48.256;16.402;2024-02-21T10:22:37;3.63;;;1.50;;
13309;SDS011;6723;48.256;16.402;2024-02-21T10:25:14;5.30;;;1.60;;
13309;SDS011;6723;48.256;16.402;2024-02-21T10:27:39;6.00;;;2.03;;
13309;SDS011;6723;48.256;16.402;2024-02-21T10:30:07;5.47;;;1.73;;
13309;SDS011;6723;48.256;16.402;2024-02-21T10:32:48;4.87;;;1.90;;
13309;SDS011;6723;48.256;16.402;2024-02-21T10:35:31;6.90;;;2.00;;
13309;SDS011;6723;48.256;16.402;2024-02-21T10:37:58;5.43;;;1.83;;
13309;SDS011;6723;48.256;16.402;2024-02-21T10:40:28;4.00;;;1.70;;
13309;SDS011;6723;48.256;16.402;2024-02-21T10:42:56;4.90;;;1.60;;
13309;SDS011;6723;48.256;16.402;2024-02-21T10:45:44;4.17;;;1.60;;
13309;SDS011;6723;48.256;16.402;2024-02-21T10:48:12;3.70;;;1.53;;
13309;SDS011;6723;48.256;16.402;2024-02-21T10:50:59;4.77;;;1.87;;
13309;SDS011;6723;48.256;16.402;2024-02-21T10:56:30;5.27;;;1.97;;
13309;SDS011;6723;48.256;16.402;2024-02-21T10:59:01;5.43;;;1.80;;
13309;SDS011;6723;48.256;16.402;2024-02-21T11:01:28;5.90;;;2.20;;
13309;SDS011;6723;48.256;16.402;2024-02-21T11:03:56;3.50;;;1.77;;
13309;SDS011;6723;48.256;16.402;2024-02-21T11:06:26;5.23;;;1.70;;
13309;SDS011;6723;48.256;16.402;2024-02-21T11:09:03;5.60;;;1.80;;
13309;SDS011;6723;48.256;16.402;2024-02-21T11:11:49;4.93;;;1.90;;
13309;SDS011;6723;48.256;16.402;2024-02-21T11:14:20;9.80;;;2.10;;
13309;SDS011;6723;48.256;16.402;2024-02-21T11:16:46;5.77;;;1.60;;
13309;SDS011;6723;48.256;16.402;2024-02-21T11:19:19;4.20;;;1.90;;
13309;SDS011;6723;48.256;16.402;2024-02-21T11:21:50;4.07;;;1.60;;
13309;SDS011;6723;48.256;16.402;2024-02-21T11:24:29;5.33;;;2.00;;
13309;SDS011;6723;48.256;16.402;2024-02-21T11:27:08;3.13;;;1.70;;
13309;SDS011;6723;48.256;16.402;2024-02-21T11:29:47;3.57;;;1.67;;
13309;SDS011;6723;48.256;16.402;2024-02-21T11:32:16;3.83;;;1.70;;
13309;SDS011;6723;48.256;16.402;2024-02-21T11:37:20;3.93;;;1.53;;
13309;SDS011;6723;48.256;16.402;2024-02-21T11:39:45;5.57;;;1.60;;
13309;SDS011;6723;48.256;16.402;2024-02-21T11:42:11;3.27;;;1.70;;
13309;SDS011;6723;48.256;16.402;2024-02-21T11:44:38;3.83;;;1.73;;
13309;SDS011;6723;48.256;16.402;2024-02-21T11:47:05;3.87;;;1.60;;
13309;SDS011;6723;48.256;16.402;2024-02-21T11:49:35;3.33;;;1.70;;
13309;SDS011;6723;48.256;16.402;2024-02-21T11:52:10;3.57;;;1.33;;
13309;SDS011;6723;48.256;16.402;2024-02-21T11:54:36;2.87;;;1.50;;
13309;SDS011;6723;48.256;16.402;2024-02-21T11:57:02;7.20;;;1.80;;
13309;SDS011;6723;48.256;16.402;2024-02-21T11:59:31;8.47;;;1.70;;
13309;SDS011;6723;48.256;16.402;2024-02-21T12:01:58;4.53;;;1.50;;
13309;SDS011;6723;48.256;16.402;2024-02-21T12:04:24;4.70;;;2.00;;
13309;SDS011;6723;48.256;16.402;2024-02-21T12:06:51;3.43;;;1.50;;
13309;SDS011;6723;48.256;16.402;2024-02-21T12:09:18;5.17;;;1.57;;
13309;SDS011;6723;48.256;16.402;2024-02-21T12:11:44;6.53;;;1.80;;
13309;SDS011;6723;48.256;16.402;2024-02-21T12:14:11;6.37;;;2.00;;
13309;SDS011;6723;48.256;16.402;2024-02-21T12:16:41;5.17;;;1.70;;
13309;SDS011;6723;48.256;16.402;2024-02-21T12:19:12;5.90;;;1.90;;
13309;SDS011;6723;48.256;16.402;2024-02-21T12:21:38;4.10;;;1.60;;
13309;SDS011;6723;48.256;16.402;2024-02-21T12:24:12;5.30;;;1.40;;
13309;SDS011;6723;48.256;16.402;2024-02-21T12:26:39;2.37;;;1.43;;
13309;SDS011;6723;48.256;16.402;2024-02-21T12:29:05;4.17;;;1.50;;
13309;SDS011;6723;48.256;16.402;2024-02-21T12:31:34;4.30;;;1.60;;
13309;SDS011;6723;48.256;16.402;2024-02-21T12:34:01;4.40;;;1.50;;
13309;SDS011;6723;48.256;16.402;2024-02-21T12:36:28;7.60;;;1.47;;
13309;SDS011;6723;48.256;16.402;2024-02-21T12:38:53;3.70;;;1.40;;
13309;SDS011;6723;48.256;16.402;2024-02-21T12:41:19;7.73;;;2.03;;
13309;SDS011;6723;48.256;16.402;2024-02-21T12:43:45;3.87;;;1.83;;
13309;SDS011;6723;48.256;16.402;2024-02-21T12:46:12;2.40;;;1.30;;
13309;SDS011;6723;48.256;16.402;2024-02-21T12:48:38;6.50;;;1.20;;
13309;SDS011;6723;48.256;16.402;2024-02-21T12:51:05;4.50;;;1.60;;
13309;SDS011;6723;48.256;16.402;2024-02-21T12:53:30;3.93;;;1.47;;
13309;SDS011;6723;48.256;16.402;2024-02-21T12:55:57;4.30;;;1.40;;
13309;SDS011;6723;48.256;16.402;2024-02-21T12:58:22;4.27;;;1.40;;
13309;SDS011;6723;48.256;16.402;2024-02-21T13:00:48;6.73;;;1.60;;
13309;SDS011;6723;48.256;16.402;2024-02-21T13:03:14;5.83;;;1.47;;
13309;SDS011;6723;48.256;16.402;2024-02-21T13:05:40;5.77;;;1.50;;
13309;SDS011;6723;48.256;16.402;2024-02-21T13:08:06;4.40;;;1.20;;
13309;SDS011;6723;48.256;16.402;2024-02-21T13:10:32;4.73;;;1.70;;
13309;SDS011;6723;48.256;16.402;2024-02-21T13:12:59;2.63;;;1.17;;
13309;SDS011;6723;48.256;16.402;2024-02-21T13:15:25;3.37;;;1.10;;
13309;SDS011;6723;48.256;16.402;2024-02-21T13:17:53;4.90;;;1.40;;
13309;SDS011;6723;48.256;16.402;2024-02-21T13:20:19;5.40;;;1.60;;
13309;SDS011;6723;48.256;16.402;2024-02-21T13:22:46;4.80;;;1.60;;
13309;SDS011;6723;48.256;16.402;2024-02-21T13:25:12;4.53;;;1.30;;
13309;SDS011;6723;48.256;16.402;2024-02-21T13:27:43;4.20;;;1.27;;
13309;SDS011;6723;48.256;16.402;2024-02-21T13:30:09;3.37;;;1.23;;
13309;SDS011;6723;48.256;16.402;2024-02-21T13:32:36;4.17;;;1.70;;
13309;SDS011;6723;48.256;16.402;2024-02-21T13:35:02;4.97;;;1.40;;
13309;SDS011;6723;48.256;16.402;2024-02-21T13:37:28;4.00;;;1.73;;
13309;SDS011;6723;48.256;16.402;2024-02-21T13:39:54;3.63;;;1.37;;
13309;SDS011;6723;48.256;16.402;2024-02-21T13:42:20;5.83;;;1.53;;
13309;SDS011;6723;48.256;16.402;2024-02-21T13:44:46;4.27;;;1.53;;
13309;SDS011;6723;48.256;16.402;2024-02-21T13:47:15;5.43;;;1.43;;
13309;SDS011;6723;48.256;16.402;2024-02-21T13:49:41;4.03;;;1.47;;
13309;SDS011;6723;48.256;16.402;2024-02-21T13:52:07;3.60;;;1.43;;
13309;SDS011;6723;48.256;16.402;2024-02-21T13:54:34;4.47;;;1.10;;
13309;SDS011;6723;48.256;16.402;2024-02-21T13:57:00;1.90;;;1.00;;
13309;SDS011;6723;48.256;16.402;2024-02-21T13:59:27;4.67;;;1.60;;
13309;SDS011;6723;48.256;16.402;2024-02-21T14:01:53;4.83;;;1.20;;
13309;SDS011;6723;48.256;16.402;2024-02-21T14:04:19;5.03;;;1.10;;
13309;SDS011;6723;48.256;16.402;2024-02-21T14:06:45;4.80;;;1.10;;
13309;SDS011;6723;48.256;16.402;2024-02-21T14:09:11;3.27;;;1.10;;
13309;SDS011;6723;48.256;16.402;2024-02-21T14:11:38;2.97;;;1.30;;
13309;SDS011;6723;48.256;16.402;2024-02-21T14:14:05;2.70;;;1.00;;
13309;SDS011;6723;48.256;16.402;2024-02-21T14:16:31;3.63;;;1.30;;
13309;SDS011;6723;48.256;16.402;2024-02-21T14:18:57;3.57;;;1.57;;
13309;SDS011;6723;48.256;16.402;2024-02-21T14:21:23;2.17;;;1.10;;
13309;SDS011;6723;48.256;16.402;2024-02-21T14:23:49;1.93;;;1.30;;
13309;SDS011;6723;48.256;16.402;2024-02-21T14:26:15;3.37;;;1.20;;
13309;SDS011;6723;48.256;16.402;2024-02-21T14:28:41;8.83;;;1.60;;
13309;SDS011;6723;48.256;16.402;2024-02-21T14:31:07;4.40;;;1.10;;
13309;SDS011;6723;48.256;16.402;2024-02-21T14:33:34;3.83;;;1.10;;
13309;SDS011;6723;48.256;16.402;2024-02-21T14:36:00;1.73;;;1.10;;
13309;SDS011;6723;48.256;16.402;2024-02-21T14:38:27;2.20;;;1.20;;
13309;SDS011;6723;48.256;16.402;2024-02-21T14:40:53;2.20;;;1.27;;
13309;SDS011;6723;48.256;16.402;2024-02-21T14:43:19;3.87;;;1.10;;
13309;SDS011;6723;48.256;16.402;2024-02-21T14:45:47;6.13;;;1.40;;
13309;SDS011;6723;48.256;16.402;2024-02-21T14:48:13;1.97;;;1.10;;
13309;SDS011;6723;48.256;16.402;2024-02-21T14:50:40;2.47;;;0.90;;
13309;SDS011;6723;48.256;16.402;2024-02-21T14:53:07;3.77;;;1.30;;
13309;SDS011;6723;48.256;16.402;2024-02-21T14:55:33;3.90;;;1.30;;
13309;SDS011;6723;48.256;16.402;2024-02-21T14:58:00;4.90;;;1.00;;